createdAt,value
2022-10-29T00:04:42.175Z,19.14
2022-10-29T00:09:43.229Z,19.09
2022-10-29T00:14:44.295Z,19.12
2022-10-29T00:19:45.407Z,19.07
2022-10-29T00:24:46.631Z,19.09
2022-10-29T00:29:47.702Z,19.06
2022-10-29T00:34:48.707Z,18.96
2022-10-29T00:39:49.885Z,18.87
2022-10-29T00:44:51.121Z,18.88
2022-10-29T00:50:12.908Z,18.90
2022-10-29T00:55:15.331Z,18.87
2022-10-29T01:00:18.147Z,18.82
2022-10-29T01:05:23.190Z,18.73
2022-10-29T01:10:39.576Z,18.65
2022-10-29T01:15:57.405Z,18.61
2022-10-29T01:21:26.000Z,18.65
2022-10-29T01:26:58.115Z,18.55
2022-10-29T01:32:48.550Z,18.53
2022-10-29T01:38:11.650Z,18.45
2022-10-29T01:43:24.406Z,18.35
2022-10-29T01:48:35.798Z,18.31
2022-10-29T01:53:38.101Z,18.29
2022-10-29T01:58:42.523Z,18.31
2022-10-29T02:04:02.054Z,18.23
2022-10-29T02:09:26.835Z,18.23
2022-10-29T02:14:53.257Z,18.24
2022-10-29T02:19:54.285Z,18.24
2022-10-29T02:24:55.381Z,18.25
2022-10-29T02:29:56.701Z,18.20
2022-10-29T02:35:00.236Z,18.17
2022-10-29T02:40:01.774Z,18.21
2022-10-29T02:45:03.319Z,18.22
2022-10-29T02:50:05.474Z,18.15
2022-10-29T02:55:06.948Z,18.10
2022-10-29T03:00:08.692Z,18.06
2022-10-29T03:05:09.957Z,18.02
2022-10-29T03:10:10.958Z,18.02
2022-10-29T03:15:12.009Z,18.11
2022-10-29T03:20:13.077Z,18.19
2022-10-29T03:25:14.235Z,18.21
2022-10-29T03:30:16.585Z,18.31
2022-10-29T03:35:17.771Z,18.27
2022-10-29T03:40:19.486Z,18.10
2022-10-29T03:45:20.721Z,17.91
2022-10-29T03:50:21.777Z,17.99
2022-10-29T03:55:23.117Z,18.12
2022-10-29T04:00:24.296Z,18.07
2022-10-29T04:05:25.299Z,18.08
2022-10-29T04:10:26.809Z,18.05
2022-10-29T04:15:27.944Z,18.03
2022-10-29T04:20:59.746Z,17.97
2022-10-29T04:27:01.770Z,17.96
2022-10-29T04:31:17.277Z,17.98
2022-10-29T04:36:18.324Z,17.93
2022-10-29T04:41:19.380Z,17.74
2022-10-29T04:46:20.998Z,17.79
2022-10-29T04:51:24.523Z,17.85
2022-10-29T04:56:25.583Z,17.77
2022-10-29T05:01:26.864Z,17.79
2022-10-29T05:06:28.071Z,17.80
2022-10-29T05:11:29.187Z,17.79
2022-10-29T05:16:30.357Z,17.79
2022-10-29T05:21:31.926Z,17.87
2022-10-29T05:26:33.000Z,18.03
2022-10-29T05:31:34.431Z,18.05
2022-10-29T05:36:35.565Z,18.10
2022-10-29T05:41:36.657Z,18.11
2022-10-29T05:46:38.898Z,18.15
2022-10-29T05:51:39.904Z,18.15
2022-10-29T05:56:41.316Z,18.14
2022-10-29T06:01:42.555Z,18.14
2022-10-29T06:06:43.784Z,18.17
2022-10-29T06:11:44.941Z,18.18
2022-10-29T06:16:46.103Z,18.18
2022-10-29T06:21:47.618Z,18.22
2022-10-29T06:26:51.949Z,18.33
2022-10-29T06:31:53.140Z,18.42
2022-10-29T06:36:54.842Z,18.54
2022-10-29T06:41:56.195Z,18.65
2022-10-29T06:46:57.460Z,18.71
2022-10-29T06:51:58.919Z,18.90
2022-10-29T06:57:00.068Z,19.13
2022-10-29T07:02:01.305Z,19.34
2022-10-29T07:07:02.470Z,19.40
2022-10-29T07:12:03.801Z,19.46
2022-10-29T07:17:04.850Z,19.51
2022-10-29T07:22:06.404Z,19.43
2022-10-29T07:27:08.527Z,19.37
2022-10-29T07:32:10.011Z,19.29
2022-10-29T07:37:12.680Z,19.32
2022-10-29T07:42:17.531Z,19.41
2022-10-29T07:47:20.082Z,19.41
2022-10-29T07:52:21.256Z,19.41
2022-10-29T07:57:22.379Z,19.44
2022-10-29T08:02:23.699Z,19.42
2022-10-29T08:07:25.096Z,19.44
2022-10-29T08:12:26.422Z,19.46
2022-10-29T08:17:30.540Z,19.45
2022-10-29T08:22:31.816Z,19.48
2022-10-29T08:27:32.839Z,19.51
2022-10-29T08:32:34.877Z,19.56
2022-10-29T08:37:41.319Z,19.66
2022-10-29T08:43:08.617Z,19.83
2022-10-29T08:48:38.176Z,20.05
2022-10-29T08:53:43.468Z,20.14
2022-10-29T08:59:22.589Z,20.21
2022-10-29T09:04:35.903Z,20.07
2022-10-29T09:09:46.388Z,20.00
2022-10-29T09:14:47.387Z,19.93
2022-10-29T09:20:07.203Z,19.98
2022-10-29T09:25:31.667Z,20.05
2022-10-29T09:30:44.020Z,20.32
2022-10-29T09:35:53.637Z,20.63
2022-10-29T09:40:58.336Z,20.93
2022-10-29T09:46:18.254Z,20.67
2022-10-29T09:51:40.623Z,19.48
2022-10-29T09:56:48.553Z,20.23
2022-10-29T10:01:53.501Z,20.78
2022-10-29T10:07:18.883Z,19.85
2022-10-29T10:12:23.231Z,20.24
2022-10-29T10:17:25.120Z,20.69
2022-10-29T10:22:26.593Z,20.59
2022-10-29T10:27:31.421Z,19.37
2022-10-29T10:32:32.838Z,19.37
2022-10-29T10:37:34.079Z,20.40
2022-10-29T10:42:46.329Z,21.02
2022-10-29T10:47:56.698Z,20.57
2022-10-29T10:53:03.552Z,20.04
2022-10-29T10:58:13.797Z,20.79
2022-10-29T11:03:20.672Z,20.49
2022-10-29T11:09:00.025Z,20.21
2022-10-29T11:14:14.020Z,21.26
2022-10-29T11:19:37.191Z,20.52
2022-10-29T11:25:03.431Z,20.03
2022-10-29T11:30:09.990Z,20.66
2022-10-29T11:35:15.766Z,19.78
2022-10-29T11:40:20.478Z,19.84
2022-10-29T11:45:49.001Z,21.02
2022-10-29T11:51:35.379Z,20.74
2022-10-29T11:57:04.219Z,19.71
2022-10-29T12:02:42.518Z,19.10
2022-10-29T12:08:09.005Z,19.69
2022-10-29T12:13:47.976Z,20.68
2022-10-29T12:19:26.994Z,20.03
2022-10-29T12:24:45.813Z,19.30
2022-10-29T12:30:10.310Z,18.89
2022-10-29T12:35:28.397Z,18.77
2022-10-29T12:40:37.848Z,20.04
2022-10-29T12:46:14.324Z,20.52
2022-10-29T12:51:26.906Z,19.44
2022-10-29T12:56:29.240Z,18.82
2022-10-29T13:06:59.476Z,19.67
2022-10-29T13:12:09.449Z,20.18
2022-10-29T13:17:34.407Z,19.30
2022-10-29T13:22:59.104Z,18.58
2022-10-29T13:28:20.826Z,18.00
2022-10-29T13:33:28.041Z,17.55
2022-10-29T13:39:05.032Z,17.23
2022-10-29T13:44:15.724Z,16.96
2022-10-29T13:49:38.808Z,17.29
2022-10-29T13:54:48.992Z,18.59
2022-10-29T14:00:14.353Z,19.28
2022-10-29T14:05:44.133Z,19.08
2022-10-29T14:10:49.711Z,17.87
2022-10-29T14:16:11.150Z,17.15
2022-10-29T14:21:21.577Z,16.64
2022-10-29T14:26:23.982Z,16.87
2022-10-29T14:31:25.660Z,18.26
2022-10-29T14:36:46.513Z,17.83
2022-10-29T14:41:51.776Z,16.87
2022-10-29T14:47:12.758Z,16.30
2022-10-29T14:52:22.079Z,16.78
2022-10-29T14:57:25.930Z,17.74
2022-10-29T15:02:38.920Z,18.24
2022-10-29T15:07:40.731Z,18.20
2022-10-29T15:12:42.273Z,17.03
2022-10-29T15:18:04.992Z,16.23
2022-10-29T15:23:17.715Z,16.35
2022-10-29T15:28:26.967Z,17.50
2022-10-29T15:33:30.675Z,18.17
2022-10-29T15:38:34.735Z,18.56
2022-10-29T15:43:55.801Z,18.77
2022-10-29T15:48:57.029Z,18.32
2022-10-29T15:54:15.103Z,16.90
2022-10-29T15:59:21.820Z,16.38
2022-10-29T16:04:22.956Z,17.36
2022-10-29T16:09:24.057Z,17.92
2022-10-29T16:14:25.179Z,18.07
2022-10-29T16:19:26.339Z,16.87
2022-10-29T16:24:31.291Z,15.74
2022-10-29T16:29:32.524Z,15.73
2022-10-29T16:34:33.960Z,16.87
2022-10-29T16:39:35.536Z,17.41
2022-10-29T16:44:36.779Z,17.59
2022-10-29T16:49:37.835Z,16.41
2022-10-29T16:54:38.956Z,15.39
2022-10-29T16:59:40.654Z,15.33
2022-10-29T17:04:41.809Z,16.48
2022-10-29T17:09:43.906Z,17.16
2022-10-29T17:14:45.035Z,16.95
2022-10-29T17:19:46.184Z,15.70
2022-10-29T17:24:47.308Z,14.93
2022-10-29T17:29:48.395Z,15.32
2022-10-29T17:34:49.895Z,16.46
2022-10-29T17:39:51.067Z,17.16
2022-10-29T17:44:52.095Z,16.98
2022-10-29T17:49:54.389Z,15.68
2022-10-29T17:54:55.690Z,15.40
2022-10-29T17:59:56.858Z,16.48
2022-10-29T18:04:58.169Z,17.20
2022-10-29T18:10:00.394Z,17.56
2022-10-29T18:15:01.628Z,17.17
2022-10-29T18:20:03.831Z,15.78
2022-10-29T18:25:05.426Z,14.85
2022-10-29T18:30:08.513Z,14.86
2022-10-29T18:35:11.454Z,16.05
2022-10-29T18:40:12.948Z,16.71
2022-10-29T18:45:14.218Z,17.07
2022-10-29T18:50:23.307Z,17.22
2022-10-29T18:55:25.287Z,17.33
2022-10-29T19:00:27.069Z,16.28
2022-10-29T19:05:28.484Z,15.00
2022-10-29T19:10:31.481Z,14.82
2022-10-29T19:15:39.377Z,15.87
2022-10-29T19:20:40.802Z,16.44
2022-10-29T19:25:43.097Z,16.83
2022-10-29T19:30:44.457Z,17.14
2022-10-29T19:35:46.228Z,16.78
2022-10-29T19:40:47.332Z,15.22
2022-10-29T19:45:50.491Z,14.88
2022-10-29T19:50:55.505Z,16.03
2022-10-29T19:55:59.809Z,16.54
2022-10-29T20:01:08.421Z,16.68
2022-10-29T20:06:12.532Z,15.60
2022-10-29T20:11:14.603Z,14.39
2022-10-29T20:16:19.515Z,14.25
2022-10-29T20:21:21.721Z,15.55
2022-10-29T20:26:23.248Z,16.21
2022-10-29T20:31:29.972Z,15.96
2022-10-29T20:36:32.313Z,14.61
2022-10-29T20:41:33.820Z,13.79
2022-10-29T20:46:40.835Z,13.86
2022-10-29T20:51:44.800Z,15.16
2022-10-29T20:56:47.316Z,15.95
2022-10-29T21:01:48.543Z,15.92
2022-10-29T21:06:51.241Z,14.66
2022-10-29T21:11:52.430Z,13.82
2022-10-29T21:16:53.727Z,13.82
2022-10-29T21:21:58.175Z,15.07
2022-10-29T21:27:00.363Z,15.79
2022-10-29T21:32:01.536Z,15.62
2022-10-29T21:37:03.713Z,14.32
2022-10-29T21:42:04.817Z,13.48
2022-10-29T21:47:05.828Z,12.91
2022-10-29T21:52:06.802Z,13.15
2022-10-29T21:57:07.909Z,14.46
2022-10-29T22:02:09.457Z,15.24
2022-10-29T22:07:11.694Z,15.88
2022-10-29T22:12:13.665Z,15.65
2022-10-29T22:17:15.115Z,14.23
2022-10-29T22:22:16.325Z,13.35
2022-10-29T22:27:17.333Z,13.39
2022-10-29T22:32:18.309Z,14.62
2022-10-29T22:37:19.367Z,15.31
2022-10-29T22:42:20.479Z,15.69
2022-10-29T22:47:21.517Z,16.01
2022-10-29T22:52:22.589Z,15.69
2022-10-29T22:57:23.805Z,14.27
2022-10-29T23:02:24.935Z,13.39
2022-10-29T23:07:26.245Z,13.81
2022-10-29T23:12:27.321Z,14.91
2022-10-29T23:17:28.641Z,15.55
2022-10-29T23:22:29.670Z,15.88
2022-10-29T23:27:30.895Z,15.54
2022-10-29T23:32:32.087Z,14.11
2022-10-29T23:37:33.261Z,13.28
2022-10-29T23:42:34.595Z,13.37
2022-10-29T23:47:35.716Z,14.58
2022-10-29T23:52:36.759Z,15.34
2022-10-29T23:57:37.818Z,15.86
